createdAt,value
2023-02-06T00:00:41.449Z,51.211887
2023-02-06T00:01:41.467Z,51.211952
2023-02-06T00:02:42.456Z,51.212021
2023-02-06T00:03:41.488Z,51.211967
2023-02-06T00:04:41.430Z,51.212044
2023-02-06T00:05:41.496Z,51.212082
2023-02-06T00:06:41.457Z,51.212036
2023-02-06T00:07:41.499Z,51.212002
2023-02-06T00:08:41.392Z,51.212021
2023-02-06T00:09:41.395Z,51.212193
2023-02-06T00:10:41.375Z,51.212105
2023-02-06T00:11:41.397Z,51.212105
2023-02-06T00:12:41.397Z,51.212109
2023-02-06T00:13:41.389Z,51.212070
2023-02-06T00:14:41.336Z,51.212120
2023-02-06T00:15:42.375Z,51.211929
2023-02-06T00:16:41.376Z,51.211823
2023-02-06T00:17:41.378Z,51.211754
2023-02-06T00:18:41.412Z,51.211761
2023-02-06T00:19:41.404Z,51.211582
2023-02-06T00:20:41.345Z,51.211529
2023-02-06T00:21:41.340Z,51.211517
2023-02-06T00:22:41.365Z,51.211479
2023-02-06T00:23:41.360Z,51.211670
2023-02-06T00:24:41.390Z,51.211662
2023-02-06T00:25:41.320Z,51.211609
2023-02-06T00:26:41.393Z,51.211594
2023-02-06T00:27:41.286Z,51.211594
2023-02-06T00:28:41.433Z,51.211613
2023-02-06T00:29:41.390Z,51.211788
2023-02-06T00:30:41.397Z,51.211788
2023-02-06T00:31:41.340Z,51.211765
2023-02-06T00:32:41.268Z,51.211784
2023-02-06T00:33:41.311Z,51.211800
2023-02-06T00:34:41.250Z,51.212009
2023-02-06T00:35:41.303Z,51.212147
2023-02-06T00:36:41.299Z,51.212315
2023-02-06T00:37:41.236Z,51.212547
2023-02-06T00:38:41.370Z,51.212383
2023-02-06T00:39:44.417Z,51.212219
2023-02-06T00:40:41.217Z,51.211987
2023-02-06T00:41:41.200Z,51.211929
2023-02-06T00:42:41.389Z,51.211880
2023-02-06T00:43:41.241Z,51.211941
2023-02-06T00:44:41.399Z,51.211868
2023-02-06T00:45:41.798Z,51.211716
2023-02-06T00:46:41.227Z,51.211815
2023-02-06T00:47:41.212Z,51.211903
2023-02-06T00:48:41.239Z,51.211895
2023-02-06T00:49:41.242Z,51.211918
2023-02-06T00:50:41.180Z,51.211647
2023-02-06T00:51:41.157Z,51.211842
2023-02-06T00:52:41.189Z,51.212017
2023-02-06T00:53:41.229Z,51.212105
2023-02-06T00:54:41.141Z,51.212139
2023-02-06T00:55:41.215Z,51.211903
2023-02-06T00:56:41.180Z,51.211803
2023-02-06T00:57:41.139Z,51.212105
2023-02-06T00:58:41.198Z,51.212292
2023-02-06T00:59:41.141Z,51.211967
2023-02-06T01:00:41.162Z,51.211952
2023-02-06T01:01:41.161Z,51.211891
2023-02-06T01:02:41.135Z,51.212063
2023-02-06T01:03:41.216Z,51.212002
2023-02-06T01:04:41.065Z,51.212044
2023-02-06T01:05:41.082Z,51.212204
2023-02-06T01:06:41.061Z,51.212173
2023-02-06T01:07:41.074Z,51.212120
2023-02-06T01:08:41.054Z,51.212097
2023-02-06T01:09:41.049Z,51.212292
2023-02-06T01:10:41.030Z,51.212265
2023-02-06T01:11:41.042Z,51.212326
2023-02-06T01:12:41.002Z,51.212231
2023-02-06T01:13:41.066Z,51.212223
2023-02-06T01:14:41.050Z,51.212212
2023-02-06T01:15:41.040Z,51.212166
2023-02-06T01:16:41.047Z,51.212112
2023-02-06T01:17:41.030Z,51.212200
2023-02-06T01:18:40.972Z,51.212185
2023-02-06T01:19:40.980Z,51.212162
2023-02-06T01:20:41.031Z,51.212151
2023-02-06T01:21:40.968Z,51.212124
2023-02-06T01:22:40.944Z,51.212109
2023-02-06T01:23:40.927Z,51.212128
2023-02-06T01:24:40.975Z,51.212219
2023-02-06T01:25:40.974Z,51.212151
2023-02-06T01:26:40.906Z,51.212204
2023-02-06T01:27:40.959Z,51.212154
2023-02-06T01:28:40.939Z,51.212170
2023-02-06T01:29:40.928Z,51.212151
2023-02-06T01:30:40.948Z,51.212116
2023-02-06T01:31:41.009Z,51.212139
2023-02-06T01:32:40.940Z,51.212135
2023-02-06T01:33:40.875Z,51.212105
2023-02-06T01:34:40.876Z,51.212128
2023-02-06T01:35:40.905Z,51.212166
2023-02-06T01:36:40.862Z,51.212204
2023-02-06T01:37:40.912Z,51.212265
2023-02-06T01:38:40.892Z,51.212181
2023-02-06T01:39:40.838Z,51.212128
2023-02-06T01:40:40.840Z,51.212135
2023-02-06T01:41:40.881Z,51.212143
2023-02-06T01:42:40.830Z,51.212170
2023-02-06T01:43:40.806Z,51.212166
2023-02-06T01:44:40.827Z,51.212158
2023-02-06T01:45:40.818Z,51.212166
2023-02-06T01:46:41.275Z,51.212132
2023-02-06T01:47:40.779Z,51.212242
2023-02-06T01:48:40.821Z,51.212196
2023-02-06T01:49:40.772Z,51.212223
2023-02-06T01:50:41.003Z,51.212162
2023-02-06T01:51:40.788Z,51.212158
2023-02-06T01:52:40.806Z,51.212204
2023-02-06T01:53:40.818Z,51.212261
2023-02-06T01:54:40.747Z,51.212185
2023-02-06T01:55:40.790Z,51.212112
2023-02-06T01:56:40.774Z,51.212070
2023-02-06T01:57:40.746Z,51.212120
2023-02-06T01:58:40.740Z,51.212086
2023-02-06T01:59:40.732Z,51.212074
2023-02-06T02:00:40.754Z,51.212036
2023-02-06T02:01:40.745Z,51.211887
2023-02-06T02:02:40.726Z,51.211891
2023-02-06T02:03:40.694Z,51.211945
2023-02-06T02:04:40.718Z,51.212090
2023-02-06T02:05:40.682Z,51.212368
2023-02-06T02:06:40.678Z,51.212215
2023-02-06T02:07:40.647Z,51.212208
2023-02-06T02:08:41.997Z,51.212231
2023-02-06T02:09:42.255Z,51.212162
2023-02-06T02:10:40.639Z,51.212120
2023-02-06T02:11:40.621Z,51.212189
2023-02-06T02:12:41.295Z,51.212250
2023-02-06T02:13:40.647Z,51.212166
2023-02-06T02:14:40.625Z,51.212128
2023-02-06T02:15:40.615Z,51.212162
2023-02-06T02:16:40.634Z,51.212158
2023-02-06T02:17:40.617Z,51.212166
2023-02-06T02:18:40.608Z,51.212246
2023-02-06T02:19:40.640Z,51.212303
2023-02-06T02:20:40.643Z,51.212208
2023-02-06T02:21:40.619Z,51.212189
2023-02-06T02:22:40.564Z,51.212337
2023-02-06T02:23:40.601Z,51.212162
2023-02-06T02:24:40.565Z,51.212254
2023-02-06T02:25:40.557Z,51.212334
2023-02-06T02:26:40.568Z,51.212101
2023-02-06T02:27:40.543Z,51.212002
2023-02-06T02:28:40.526Z,51.212147
2023-02-06T02:29:41.596Z,51.212463
2023-02-06T02:30:40.591Z,51.212330
2023-02-06T02:31:40.609Z,51.212261
2023-02-06T02:32:40.515Z,51.212654
2023-02-06T02:33:40.508Z,51.212559
2023-02-06T02:34:40.500Z,51.212051
2023-02-06T02:35:40.506Z,51.212276
2023-02-06T02:36:40.486Z,51.212109
2023-02-06T02:37:40.592Z,51.212292
2023-02-06T02:38:40.474Z,51.212193
2023-02-06T02:39:40.502Z,51.212185
2023-02-06T02:40:40.474Z,51.211945
2023-02-06T02:41:40.459Z,51.211876
2023-02-06T02:42:40.465Z,51.211975
2023-02-06T02:43:40.449Z,51.211834
2023-02-06T02:44:40.464Z,51.211819
2023-02-06T02:45:40.479Z,51.211960
2023-02-06T02:46:40.433Z,51.211914
2023-02-06T02:47:40.428Z,51.211876
2023-02-06T02:48:40.507Z,51.211864
2023-02-06T02:49:40.418Z,51.211811
2023-02-06T02:50:40.425Z,51.211849
2023-02-06T02:51:40.449Z,51.211926
2023-02-06T02:52:40.391Z,51.211964
2023-02-06T02:53:40.404Z,51.211899
2023-02-06T02:54:40.379Z,51.211971
2023-02-06T02:55:40.388Z,51.212002
2023-02-06T02:56:40.411Z,51.212078
2023-02-06T02:57:40.387Z,51.212116
2023-02-06T02:58:40.401Z,51.212048
2023-02-06T02:59:40.355Z,51.212078
2023-02-06T03:00:40.422Z,51.212143
2023-02-06T03:01:40.383Z,51.212090
2023-02-06T03:02:40.334Z,51.212109
2023-02-06T03:03:40.334Z,51.212170
2023-02-06T03:04:40.336Z,51.212231
2023-02-06T03:05:40.316Z,51.212311
2023-02-06T03:06:40.323Z,51.212288
2023-02-06T03:07:40.318Z,51.212185
2023-02-06T03:08:40.388Z,51.212162
2023-02-06T03:09:40.289Z,51.212074
2023-02-06T03:10:40.281Z,51.212009
2023-02-06T03:11:40.294Z,51.212185
2023-02-06T03:12:40.324Z,51.212193
2023-02-06T03:13:40.283Z,51.212086
2023-02-06T03:14:40.296Z,51.212112
2023-02-06T03:15:40.273Z,51.212303
2023-02-06T03:16:40.292Z,51.212067
2023-02-06T03:17:40.267Z,51.212296
2023-02-06T03:18:40.275Z,51.212391
2023-02-06T03:19:40.238Z,51.212292
2023-02-06T03:20:40.220Z,51.212078
2023-02-06T03:21:40.277Z,51.212059
2023-02-06T03:22:40.213Z,51.212059
2023-02-06T03:23:40.215Z,51.212154
2023-02-06T03:24:40.337Z,51.212147
2023-02-06T03:25:40.188Z,51.212139
2023-02-06T03:26:40.189Z,51.212074
2023-02-06T03:27:40.184Z,51.212116
2023-02-06T03:28:40.194Z,51.212173
2023-02-06T03:29:40.169Z,51.212200
2023-02-06T03:30:40.248Z,51.212177
2023-02-06T03:31:40.180Z,51.212124
2023-02-06T03:32:40.167Z,51.212143
2023-02-06T03:33:40.179Z,51.212151
2023-02-06T03:34:40.164Z,51.212212
2023-02-06T03:35:40.142Z,51.212173
2023-02-06T03:36:40.137Z,51.212173
2023-02-06T03:37:40.165Z,51.212223
2023-02-06T03:38:40.119Z,51.212143
2023-02-06T03:39:40.152Z,51.212154
2023-02-06T03:40:40.103Z,51.212173
2023-02-06T03:41:40.100Z,51.212311
2023-02-06T03:42:41.150Z,51.212261
2023-02-06T03:43:40.092Z,51.212265
2023-02-06T03:44:40.093Z,51.212387
2023-02-06T03:45:40.315Z,51.212467
2023-02-06T03:46:40.101Z,51.212490
2023-02-06T03:47:40.087Z,51.212231
2023-02-06T03:48:40.089Z,51.211746
2023-02-06T03:49:40.062Z,51.211678
2023-02-06T03:50:40.049Z,51.212112
2023-02-06T03:51:40.066Z,51.212360
2023-02-06T03:52:40.113Z,51.212486
2023-02-06T03:53:40.817Z,51.212151
2023-02-06T03:54:40.049Z,51.212151
2023-02-06T03:55:40.036Z,51.212093
2023-02-06T03:56:40.039Z,51.212132
2023-02-06T03:57:40.044Z,51.212124
2023-02-06T03:58:40.013Z,51.212154
2023-02-06T03:59:40.039Z,51.212215
2023-02-06T04:00:39.993Z,51.212177
2023-02-06T04:01:40.034Z,51.211845
2023-02-06T04:02:40.025Z,51.211868
2023-02-06T04:03:40.007Z,51.211887
2023-02-06T04:04:39.998Z,51.212132
2023-02-06T04:05:39.966Z,51.212242
2023-02-06T04:06:40.786Z,51.212318
2023-02-06T04:07:39.953Z,51.212315
2023-02-06T04:08:40.069Z,51.212223
2023-02-06T04:09:39.953Z,51.212215
2023-02-06T04:10:39.933Z,51.212215
2023-02-06T04:11:39.971Z,51.212242
2023-02-06T04:12:39.920Z,51.212212
2023-02-06T04:13:39.974Z,51.212132
2023-02-06T04:14:39.915Z,51.212177
2023-02-06T04:15:39.916Z,51.212208
2023-02-06T04:16:40.015Z,51.212227
2023-02-06T04:17:53.683Z,51.212223
2023-02-06T04:18:41.905Z,51.212280
2023-02-06T04:19:39.985Z,51.212315
2023-02-06T04:20:39.879Z,51.212215
2023-02-06T04:21:39.872Z,51.212193
2023-02-06T04:22:39.913Z,51.212231
2023-02-06T04:23:39.877Z,51.212200
2023-02-06T04:24:40.734Z,51.212219
2023-02-06T04:25:39.850Z,51.212185
2023-02-06T04:26:39.906Z,51.212296
2023-02-06T04:27:39.914Z,51.212318
2023-02-06T04:28:39.824Z,51.212307
2023-02-06T04:29:39.944Z,51.212276
2023-02-06T04:30:39.874Z,51.212265
2023-02-06T04:31:39.853Z,51.212265
2023-02-06T04:32:39.823Z,51.212227
2023-02-06T04:33:39.826Z,51.212185
2023-02-06T04:34:39.814Z,51.212109
2023-02-06T04:35:39.850Z,51.212223
2023-02-06T04:36:39.788Z,51.212181
2023-02-06T04:37:39.805Z,51.212193
2023-02-06T04:38:39.828Z,51.212067
2023-02-06T04:39:39.784Z,51.212029
2023-02-06T04:40:39.760Z,51.212154
2023-02-06T04:41:39.769Z,51.212112
2023-02-06T04:42:39.834Z,51.212196
2023-02-06T04:43:39.742Z,51.212170
2023-02-06T04:44:39.750Z,51.212128
2023-02-06T04:45:39.754Z,51.212154
2023-02-06T04:46:39.743Z,51.212116
2023-02-06T04:47:39.723Z,51.212147
2023-02-06T04:48:39.746Z,51.212231
2023-02-06T04:49:39.712Z,51.212204
2023-02-06T04:50:39.698Z,51.212139
2023-02-06T04:51:39.702Z,51.212101
2023-02-06T04:52:39.718Z,51.212238
2023-02-06T04:53:39.738Z,51.212299
2023-02-06T04:54:39.692Z,51.212284
2023-02-06T04:55:39.733Z,51.212250
2023-02-06T04:56:39.664Z,51.212181
2023-02-06T04:57:39.661Z,51.212135
2023-02-06T04:58:39.703Z,51.212090
2023-02-06T04:59:39.642Z,51.212132
2023-02-06T05:00:39.635Z,51.212196
2023-02-06T05:01:39.701Z,51.212254
2023-02-06T05:02:39.958Z,51.212185
2023-02-06T05:03:39.623Z,51.212208
2023-02-06T05:04:39.607Z,51.212219
2023-02-06T05:05:39.611Z,51.212128
2023-02-06T05:06:43.167Z,51.212147
2023-02-06T05:07:39.592Z,51.212078
2023-02-06T05:08:39.587Z,51.212074
2023-02-06T05:09:40.593Z,51.212151
2023-02-06T05:10:39.584Z,51.212086
2023-02-06T05:11:39.592Z,51.212093
2023-02-06T05:12:39.589Z,51.212128
2023-02-06T05:13:39.579Z,51.212082
2023-02-06T05:14:39.562Z,51.212082
2023-02-06T05:15:39.719Z,51.212170
2023-02-06T05:16:39.582Z,51.212143
2023-02-06T05:17:39.547Z,51.212143
2023-02-06T05:18:39.549Z,51.212132
2023-02-06T05:19:39.530Z,51.212093
2023-02-06T05:20:39.512Z,51.212032
2023-02-06T05:21:39.513Z,51.211975
2023-02-06T05:22:39.514Z,51.212029
2023-02-06T05:23:39.494Z,51.212009
2023-02-06T05:24:39.494Z,51.211826
2023-02-06T05:25:41.378Z,51.211823
2023-02-06T05:26:39.471Z,51.211849
2023-02-06T05:27:40.236Z,51.211876
2023-02-06T05:28:39.463Z,51.211987
2023-02-06T05:29:39.444Z,51.212044
2023-02-06T05:30:39.468Z,51.212032
2023-02-06T05:31:39.555Z,51.212029
2023-02-06T05:32:39.440Z,51.212109
2023-02-06T05:33:39.443Z,51.212189
2023-02-06T05:34:39.432Z,51.211937
2023-02-06T05:35:39.422Z,51.212173
2023-02-06T05:36:39.436Z,51.212017
2023-02-06T05:37:39.439Z,51.211975
2023-02-06T05:38:39.438Z,51.212036
2023-02-06T05:39:39.399Z,51.211967
2023-02-06T05:40:39.400Z,51.211960
2023-02-06T05:41:39.423Z,51.211956
2023-02-06T05:42:39.430Z,51.211971
2023-02-06T05:43:39.446Z,51.211990
2023-02-06T05:44:39.371Z,51.212051
2023-02-06T05:45:39.706Z,51.212013
2023-02-06T05:46:39.433Z,51.212143
2023-02-06T05:47:39.398Z,51.212223
2023-02-06T05:48:39.364Z,51.212189
2023-02-06T05:49:40.289Z,51.211914
2023-02-06T05:50:39.357Z,51.211761
2023-02-06T05:51:40.249Z,51.211941
2023-02-06T05:52:39.360Z,51.211926
2023-02-06T05:53:39.357Z,51.212170
2023-02-06T05:54:39.313Z,51.212128
2023-02-06T05:55:39.365Z,51.212002
2023-02-06T05:56:39.304Z,51.212101
2023-02-06T05:57:39.299Z,51.212086
2023-02-06T05:58:39.306Z,51.212215
2023-02-06T05:59:39.323Z,51.212059
2023-02-06T06:00:39.298Z,51.212139
2023-02-06T06:01:39.287Z,51.211960
2023-02-06T06:02:39.290Z,51.212101
2023-02-06T06:03:39.354Z,51.211975
2023-02-06T06:04:39.352Z,51.212120
2023-02-06T06:05:39.303Z,51.212044
2023-02-06T06:06:39.272Z,51.211872
2023-02-06T06:07:39.298Z,51.212040
2023-02-06T06:08:39.228Z,51.211922
2023-02-06T06:09:39.311Z,51.211899
2023-02-06T06:10:39.249Z,51.212105
2023-02-06T06:11:40.224Z,51.212090
2023-02-06T06:12:39.231Z,51.212025
2023-02-06T06:13:39.224Z,51.212116
2023-02-06T06:14:39.257Z,51.212017
2023-02-06T06:15:39.254Z,51.211975
2023-02-06T06:16:39.200Z,51.211975
2023-02-06T06:17:39.193Z,51.211998
2023-02-06T06:18:39.224Z,51.212128
2023-02-06T06:19:39.214Z,51.212059
2023-02-06T06:20:39.162Z,51.212097
2023-02-06T06:21:39.192Z,51.212128
2023-02-06T06:22:39.201Z,51.212090
2023-02-06T06:23:39.157Z,51.212021
2023-02-06T06:24:39.157Z,51.212017
2023-02-06T06:25:39.153Z,51.212147
2023-02-06T06:26:39.144Z,51.212147
2023-02-06T06:27:39.170Z,51.212162
2023-02-06T06:28:39.149Z,51.211990
2023-02-06T06:29:39.127Z,51.212070
2023-02-06T06:30:39.165Z,51.212162
2023-02-06T06:31:39.114Z,51.212158
2023-02-06T06:32:39.089Z,51.212132
2023-02-06T06:33:39.095Z,51.212139
2023-02-06T06:34:39.107Z,51.212128
2023-02-06T06:35:39.071Z,51.212093
2023-02-06T06:36:39.104Z,51.212051
2023-02-06T06:37:39.074Z,51.212086
2023-02-06T06:38:39.055Z,51.211853
2023-02-06T06:39:39.075Z,51.211956
2023-02-06T06:40:39.088Z,51.211933
2023-02-06T06:41:39.039Z,51.212070
2023-02-06T06:42:39.038Z,51.212193
2023-02-06T06:43:39.058Z,51.212105
2023-02-06T06:44:39.006Z,51.212132
2023-02-06T06:45:39.318Z,51.212017
2023-02-06T06:46:39.006Z,51.212067
2023-02-06T06:47:39.091Z,51.211952
2023-02-06T06:48:39.013Z,51.211990
2023-02-06T06:49:39.013Z,51.211979
2023-02-06T06:50:38.968Z,51.212067
2023-02-06T06:51:39.001Z,51.212090
2023-02-06T06:52:38.959Z,51.212173
2023-02-06T06:53:39.014Z,51.211948
2023-02-06T06:54:38.944Z,51.211891
2023-02-06T06:55:38.961Z,51.212021
2023-02-06T06:56:39.028Z,51.211853
2023-02-06T06:57:38.931Z,51.211952
2023-02-06T06:58:38.951Z,51.212006
2023-02-06T06:59:38.917Z,51.211914
2023-02-06T07:00:39.511Z,51.211803
2023-02-06T07:01:39.937Z,51.211899
2023-02-06T07:02:38.967Z,51.212002
2023-02-06T07:03:38.909Z,51.211937
2023-02-06T07:04:38.922Z,51.211952
2023-02-06T07:05:38.917Z,51.212135
2023-02-06T07:06:38.884Z,51.212013
2023-02-06T07:07:38.940Z,51.211948
2023-02-06T07:08:38.863Z,51.211998
2023-02-06T07:09:38.891Z,51.212086
2023-02-06T07:10:38.853Z,51.211956
2023-02-06T07:11:38.935Z,51.212067
2023-02-06T07:12:39.677Z,51.212051
2023-02-06T07:13:38.836Z,51.212036
2023-02-06T07:14:38.851Z,51.211945
2023-02-06T07:15:38.879Z,51.211910
2023-02-06T07:16:38.899Z,51.211922
2023-02-06T07:17:38.843Z,51.211845
2023-02-06T07:18:38.818Z,51.211861
2023-02-06T07:19:38.839Z,51.212032
2023-02-06T07:20:38.818Z,51.212025
2023-02-06T07:21:38.802Z,51.211964
2023-02-06T07:22:38.798Z,51.211983
2023-02-06T07:23:38.806Z,51.211864
2023-02-06T07:24:39.735Z,51.211948
2023-02-06T07:25:38.779Z,51.211922
2023-02-06T07:26:38.785Z,51.211838
2023-02-06T07:27:38.794Z,51.211746
2023-02-06T07:28:38.752Z,51.211876
2023-02-06T07:29:38.773Z,51.211926
2023-02-06T07:30:38.898Z,51.211906
2023-02-06T07:31:38.854Z,51.211880
2023-02-06T07:32:38.904Z,51.211868
2023-02-06T07:33:38.766Z,51.211918
2023-02-06T07:34:38.713Z,51.211998
2023-02-06T07:35:38.883Z,51.211956
2023-02-06T07:36:38.713Z,51.211979
2023-02-06T07:37:38.702Z,51.211861
2023-02-06T07:38:38.712Z,51.211670
2023-02-06T07:39:38.703Z,51.211845
2023-02-06T07:40:45.063Z,51.212132
2023-02-06T07:41:40.731Z,51.211910
2023-02-06T07:42:38.667Z,51.211926
2023-02-06T07:43:39.240Z,51.211918
2023-02-06T07:44:38.660Z,51.211967
2023-02-06T07:45:39.036Z,51.212116
2023-02-06T07:46:39.725Z,51.212090
2023-02-06T07:47:38.621Z,51.212135
2023-02-06T07:48:38.809Z,51.212002
2023-02-06T07:49:38.643Z,51.211922
2023-02-06T07:50:39.334Z,51.211750
2023-02-06T07:51:38.634Z,51.211746
2023-02-06T07:52:38.636Z,51.211773
2023-02-06T07:53:38.655Z,51.211933
2023-02-06T07:54:39.203Z,51.211979
2023-02-06T07:55:38.850Z,51.212185
2023-02-06T07:56:38.581Z,51.212143
2023-02-06T07:57:38.592Z,51.212212
2023-02-06T07:58:38.575Z,51.212193
2023-02-06T07:59:38.614Z,51.212234
2023-02-06T08:00:38.559Z,51.212246
2023-02-06T08:01:39.400Z,51.212170
2023-02-06T08:02:38.549Z,51.212147
2023-02-06T08:03:38.560Z,51.212158
2023-02-06T08:04:38.639Z,51.212234
2023-02-06T08:05:38.835Z,51.212151
2023-02-06T08:06:39.257Z,51.212177
2023-02-06T08:07:38.559Z,51.212158
2023-02-06T08:08:38.614Z,51.212116
2023-02-06T08:09:38.582Z,51.212112
2023-02-06T08:10:38.502Z,51.212147
2023-02-06T08:11:38.513Z,51.212200
2023-02-06T08:12:38.517Z,51.212273
2023-02-06T08:13:38.489Z,51.212181
2023-02-06T08:14:38.465Z,51.212173
2023-02-06T08:15:38.644Z,51.212093
2023-02-06T08:16:38.527Z,51.212086
2023-02-06T08:17:38.489Z,51.212093
2023-02-06T08:18:38.589Z,51.212101
2023-02-06T08:19:38.604Z,51.212017
2023-02-06T08:20:38.637Z,51.212048
2023-02-06T08:21:38.440Z,51.212006
2023-02-06T08:22:38.510Z,51.212166
2023-02-06T08:23:38.569Z,51.212219
2023-02-06T08:24:38.463Z,51.212166
2023-02-06T08:25:38.846Z,51.212132
2023-02-06T08:26:39.480Z,51.212147
2023-02-06T08:27:38.429Z,51.212158
2023-02-06T08:28:39.218Z,51.212132
2023-02-06T08:29:38.376Z,51.212105
2023-02-06T08:30:38.433Z,51.212070
2023-02-06T08:31:38.448Z,51.212112
2023-02-06T08:32:38.362Z,51.212158
2023-02-06T08:33:38.395Z,51.212132
2023-02-06T08:34:38.344Z,51.212204
2023-02-06T08:35:38.378Z,51.212185
2023-02-06T08:36:38.386Z,51.212109
2023-02-06T08:37:38.341Z,51.212227
2023-02-06T08:38:38.355Z,51.212177
2023-02-06T08:39:38.341Z,51.212166
2023-02-06T08:40:38.366Z,51.212200
2023-02-06T08:41:38.337Z,51.212135
2023-02-06T08:42:38.364Z,51.212002
2023-02-06T08:43:38.335Z,51.212101
2023-02-06T08:44:38.304Z,51.212112
2023-02-06T08:45:38.369Z,51.212154
2023-02-06T08:46:38.281Z,51.212215
2023-02-06T08:47:38.279Z,51.212173
2023-02-06T08:48:38.281Z,51.212189
2023-02-06T08:49:38.291Z,51.212162
2023-02-06T08:50:38.328Z,51.212078
2023-02-06T08:51:38.262Z,51.212055
2023-02-06T08:52:38.293Z,51.212032
2023-02-06T08:53:38.256Z,51.212154
2023-02-06T08:54:38.977Z,51.212139
2023-02-06T08:55:39.511Z,51.212177
2023-02-06T08:56:38.287Z,51.212193
2023-02-06T08:57:38.240Z,51.211838
2023-02-06T08:58:39.784Z,51.212158
2023-02-06T08:59:38.196Z,51.211987
2023-02-06T09:00:38.213Z,51.211994
2023-02-06T09:01:38.213Z,51.212112
2023-02-06T09:02:38.253Z,51.212177
2023-02-06T09:03:38.184Z,51.212086
2023-02-06T09:04:38.191Z,51.211803
2023-02-06T09:05:38.320Z,51.211952
2023-02-06T09:06:38.162Z,51.211895
2023-02-06T09:07:38.190Z,51.212128
2023-02-06T09:08:38.245Z,51.212074
2023-02-06T09:09:38.150Z,51.212139
2023-02-06T09:10:38.174Z,51.211998
2023-02-06T09:11:38.141Z,51.212040
2023-02-06T09:12:38.130Z,51.211964
2023-02-06T09:13:38.127Z,51.212055
2023-02-06T09:14:38.134Z,51.211990
2023-02-06T09:15:38.414Z,51.212154
2023-02-06T09:16:38.122Z,51.212208
2023-02-06T09:17:38.109Z,51.212231
2023-02-06T09:18:38.083Z,51.212063
2023-02-06T09:19:38.106Z,51.212097
2023-02-06T09:20:38.094Z,51.212330
2023-02-06T09:21:38.079Z,51.212227
2023-02-06T09:22:38.122Z,51.212170
2023-02-06T09:23:38.064Z,51.212173
2023-02-06T09:24:38.745Z,51.212196
2023-02-06T09:25:38.185Z,51.212231
2023-02-06T09:26:44.739Z,51.212219
2023-02-06T09:27:40.047Z,51.212048
2023-02-06T09:28:38.055Z,51.211964
2023-02-06T09:29:38.028Z,51.212021
2023-02-06T09:30:38.036Z,51.212124
2023-02-06T09:31:38.031Z,51.211926
2023-02-06T09:32:38.000Z,51.211834
2023-02-06T09:33:38.014Z,51.212120
2023-02-06T09:34:37.993Z,51.212151
2023-02-06T09:35:38.392Z,51.212265
2023-02-06T09:36:37.986Z,51.212326
2023-02-06T09:37:37.996Z,51.211906
2023-02-06T09:38:37.978Z,51.211704
2023-02-06T09:39:37.961Z,51.212086
2023-02-06T09:40:37.965Z,51.212242
2023-02-06T09:41:37.982Z,51.212063
2023-02-06T09:42:37.982Z,51.212093
2023-02-06T09:43:37.996Z,51.211956
2023-02-06T09:44:37.969Z,51.212067
2023-02-06T09:45:38.323Z,51.212147
2023-02-06T09:46:37.924Z,51.211876
2023-02-06T09:47:37.931Z,51.211838
2023-02-06T09:48:37.926Z,51.212112
2023-02-06T09:49:37.932Z,51.211899
2023-02-06T09:50:37.943Z,51.212109
2023-02-06T09:51:37.895Z,51.211929
2023-02-06T09:52:37.903Z,51.211838
2023-02-06T09:53:38.919Z,51.211922
2023-02-06T09:54:37.863Z,51.211914
2023-02-06T09:55:38.088Z,51.211979
2023-02-06T09:56:37.856Z,51.212025
2023-02-06T09:57:37.851Z,51.212090
2023-02-06T09:58:37.833Z,51.212006
2023-02-06T09:59:37.846Z,51.212055
2023-02-06T10:00:37.865Z,51.211914
2023-02-06T10:01:38.786Z,51.211994
2023-02-06T10:02:37.821Z,51.212090
2023-02-06T10:03:37.818Z,51.212170
2023-02-06T10:04:37.807Z,51.212170
2023-02-06T10:05:38.267Z,51.212196
2023-02-06T10:06:37.795Z,51.212124
2023-02-06T10:07:37.787Z,51.212048
2023-02-06T10:08:38.808Z,51.212151
2023-02-06T10:09:37.791Z,51.212013
2023-02-06T10:10:37.796Z,51.212067
2023-02-06T10:11:37.767Z,51.212013
2023-02-06T10:12:37.785Z,51.212048
2023-02-06T10:13:37.750Z,51.212120
2023-02-06T10:14:37.756Z,51.212120
2023-02-06T10:15:37.986Z,51.212185
2023-02-06T10:16:37.763Z,51.212132
2023-02-06T10:17:37.730Z,51.212215
2023-02-06T10:18:37.713Z,51.212227
2023-02-06T10:19:37.742Z,51.212177
2023-02-06T10:20:37.724Z,51.212196
2023-02-06T10:21:37.693Z,51.212185
2023-02-06T10:22:37.692Z,51.212116
2023-02-06T10:23:37.689Z,51.212139
2023-02-06T10:24:37.691Z,51.212082
2023-02-06T10:25:37.926Z,51.212128
2023-02-06T10:26:37.670Z,51.212135
2023-02-06T10:27:37.715Z,51.212181
2023-02-06T10:28:37.656Z,51.212196
2023-02-06T10:29:37.638Z,51.212208
2023-02-06T10:30:37.643Z,51.212231
2023-02-06T10:31:37.722Z,51.212135
2023-02-06T10:32:37.619Z,51.212173
2023-02-06T10:33:37.609Z,51.212116
2023-02-06T10:34:37.608Z,51.212097
2023-02-06T10:35:37.944Z,51.212112
2023-02-06T10:36:37.603Z,51.212151
2023-02-06T10:37:37.591Z,51.212097
2023-02-06T10:38:37.589Z,51.212097
2023-02-06T10:39:37.589Z,51.212124
2023-02-06T10:40:37.566Z,51.212097
2023-02-06T10:41:37.577Z,51.212154
2023-02-06T10:42:37.581Z,51.212177
2023-02-06T10:43:37.566Z,51.212135
2023-02-06T10:44:37.548Z,51.212101
2023-02-06T10:45:37.840Z,51.212090
2023-02-06T10:46:37.594Z,51.212112
2023-02-06T10:47:38.569Z,51.212212
2023-02-06T10:48:37.534Z,51.212246
2023-02-06T10:49:37.513Z,51.212284
2023-02-06T10:50:37.531Z,51.212219
2023-02-06T10:51:37.526Z,51.212231
2023-02-06T10:52:37.526Z,51.212139
2023-02-06T10:53:37.493Z,51.212208
2023-02-06T10:54:37.488Z,51.212257
2023-02-06T10:55:37.510Z,51.212299
2023-02-06T10:56:37.518Z,51.212227
2023-02-06T10:57:37.530Z,51.212097
2023-02-06T10:58:37.479Z,51.212173
2023-02-06T10:59:37.481Z,51.212204
2023-02-06T11:00:39.525Z,51.212227
2023-02-06T11:01:37.679Z,51.212208
2023-02-06T11:02:37.768Z,51.212097
2023-02-06T11:03:39.835Z,51.212120
2023-02-06T11:04:37.431Z,51.212059
2023-02-06T11:05:37.689Z,51.212147
2023-02-06T11:06:37.407Z,51.212013
2023-02-06T11:07:37.453Z,51.212101
2023-02-06T11:08:37.409Z,51.212212
2023-02-06T11:09:37.397Z,51.212326
2023-02-06T11:10:37.750Z,51.212273
2023-02-06T11:11:37.396Z,51.212223
2023-02-06T11:12:37.406Z,51.212238
2023-02-06T11:13:37.365Z,51.212215
2023-02-06T11:14:37.389Z,51.212139
2023-02-06T11:15:37.745Z,51.212120
2023-02-06T11:16:37.481Z,51.212059
2023-02-06T11:17:37.353Z,51.212212
2023-02-06T11:18:37.345Z,51.212227
2023-02-06T11:19:38.388Z,51.212166
2023-02-06T11:20:37.682Z,51.212170
2023-02-06T11:21:37.356Z,51.212151
2023-02-06T11:22:47.730Z,51.212132
2023-02-06T11:23:39.305Z,51.212162
2023-02-06T11:24:37.323Z,51.212212